Time;durP1;ratioP1;P1;durP2;ratioP2;P2;SDS_P1;SDS_P2;PMS_P1;PMS_P2;Temp;Humidity;BMP_temperature;BMP_pressure;BME280_temperature;BME280_humidity;BME280_pressure;Samples;Min_cycle;Max_cycle;Signal;HPM_P1;HPM_P2
2023/07/07 00:01:50;;;;;;;4.60;2.80;;;;;;;14.56;100.00;100366.22;4971351;28;20231;-68
2023/07/07 00:04:15;;;;;;;5.93;2.63;;;;;;;14.57;100.00;100360.94;4999231;28;20269;-68
2023/07/07 00:06:41;;;;;;;7.33;2.70;;;;;;;14.58;100.00;100367.78;4992171;28;20195;-67
2023/07/07 00:09:07;;;;;;;4.37;2.70;;;;;;;14.50;100.00;100367.50;4990379;28;20222;-67
2023/07/07 00:11:32;;;;;;;5.50;3.03;;;;;;;14.42;100.00;100369.75;4992452;28;20226;-67
2023/07/07 00:13:57;;;;;;;7.60;3.00;;;;;;;14.39;100.00;100369.94;4993217;28;20190;-68
2023/07/07 00:16:27;;;;;;;3.87;2.33;;;;;;;14.34;100.00;100370.25;4992017;28;20637;-67
2023/07/07 00:18:56;;;;;;;6.53;3.30;;;;;;;14.28;100.00;100368.91;4993168;28;20190;-68
2023/07/07 00:21:24;;;;;;;5.03;2.77;;;;;;;14.29;100.00;100367.97;4986526;28;20238;-67
2023/07/07 00:23:53;;;;;;;4.90;2.70;;;;;;;14.27;100.00;100376.78;4994389;28;20226;-68
2023/07/07 00:26:19;;;;;;;3.33;2.83;;;;;;;14.23;100.00;100381.31;4994622;28;20278;-70
2023/07/07 00:28:44;;;;;;;4.20;2.90;;;;;;;14.17;100.00;100372.19;5001255;28;20331;-69
2023/07/07 00:31:09;;;;;;;7.20;2.93;;;;;;;14.08;100.00;100380.56;5005829;28;20695;-69
2023/07/07 00:33:35;;;;;;;3.57;2.70;;;;;;;14.08;100.00;100377.97;5018919;28;20187;-69
2023/07/07 00:36:00;;;;;;;3.53;2.47;;;;;;;14.09;100.00;100382.22;5013479;28;20198;-68
2023/07/07 00:38:25;;;;;;;3.37;3.00;;;;;;;14.01;100.00;100379.28;5004268;28;20617;-69
2023/07/07 00:40:52;;;;;;;3.73;2.93;;;;;;;13.99;100.00;100381.13;5009418;28;20283;-68
2023/07/07 00:43:19;;;;;;;4.47;2.93;;;;;;;13.91;100.00;100383.41;5019768;28;20193;-69
2023/07/07 00:45:45;;;;;;;5.10;2.90;;;;;;;13.84;100.00;100376.03;5012531;28;20191;-68
2023/07/07 00:48:12;;;;;;;4.87;3.10;;;;;;;13.83;100.00;100381.28;5012312;28;20195;-68
2023/07/07 00:50:45;;;;;;;4.33;2.63;;;;;;;13.83;100.00;100383.88;5006025;28;20371;-68
2023/07/07 00:53:10;;;;;;;4.03;2.63;;;;;;;13.80;100.00;100386.66;5011158;28;20276;-69
2023/07/07 00:55:40;;;;;;;5.23;2.40;;;;;;;13.68;100.00;100378.75;5010424;28;20182;-68
2023/07/07 00:58:08;;;;;;;4.93;2.60;;;;;;;13.70;100.00;100376.06;4990618;28;20194;-69
2023/07/07 01:00:36;;;;;;;2.93;2.43;;;;;;;13.68;100.00;100377.91;5004210;28;20237;-69
2023/07/07 01:03:09;;;;;;;4.77;2.80;;;;;;;13.67;100.00;100373.69;5023443;28;20185;-68
2023/07/07 01:05:37;;;;;;;4.43;3.10;;;;;;;13.65;100.00;100378.13;5009795;28;20183;-68
2023/07/07 01:08:06;;;;;;;6.30;2.70;;;;;;;13.59;100.00;100379.31;5010125;28;20291;-68
2023/07/07 01:10:32;;;;;;;5.43;3.00;;;;;;;13.60;100.00;100391.34;5000876;28;20223;-68
2023/07/07 01:12:58;;;;;;;3.67;2.87;;;;;;;13.58;100.00;100385.41;4983624;28;20279;-68
2023/07/07 01:15:29;;;;;;;3.73;2.67;;;;;;;13.59;100.00;100391.44;4991894;28;20176;-67
2023/07/07 01:18:12;;;;;;;4.37;2.70;;;;;;;13.50;100.00;100390.25;4994411;28;20195;-67
2023/07/07 01:21:01;;;;;;;5.97;2.80;;;;;;;13.51;100.00;100384.97;4988230;28;20241;-68
2023/07/07 01:23:59;;;;;;;5.37;3.07;;;;;;;13.50;100.00;100383.31;5002958;28;20191;-68
2023/07/07 01:26:41;;;;;;;4.57;2.67;;;;;;;13.53;100.00;100390.91;4996812;28;20180;-68
2023/07/07 01:29:51;;;;;;;4.10;2.80;;;;;;;13.34;100.00;100390.34;5013430;28;20348;-69
2023/07/07 01:32:19;;;;;;;4.03;3.03;;;;;;;13.42;100.00;100383.00;4957459;28;20242;-68
2023/07/07 01:34:46;;;;;;;3.30;2.70;;;;;;;13.41;100.00;100394.25;5010954;28;20202;-69
2023/07/07 01:37:11;;;;;;;3.73;3.10;;;;;;;13.38;100.00;100387.50;5008568;28;20187;-69
2023/07/07 01:39:38;;;;;;;4.20;3.03;;;;;;;13.43;100.00;100388.97;5008147;28;20305;-68
2023/07/07 01:42:10;;;;;;;5.90;3.00;;;;;;;13.36;100.00;100378.97;5018664;28;20711;-69
2023/07/07 01:44:35;;;;;;;6.20;2.37;;;;;;;13.41;100.00;100386.50;5011494;28;20174;-68
2023/07/07 01:47:17;;;;;;;4.93;2.60;;;;;;;13.28;100.00;100383.78;5004017;28;20188;-68
2023/07/07 01:49:55;;;;;;;2.67;2.13;;;;;;;13.22;100.00;100384.16;4999553;28;20207;-68
2023/07/07 01:52:30;;;;;;;4.60;2.63;;;;;;;13.18;100.00;100377.53;5000995;28;20222;-69
2023/07/07 01:55:02;;;;;;;4.47;2.60;;;;;;;13.17;100.00;100375.88;4993337;28;20187;-69
2023/07/07 01:57:28;;;;;;;3.53;2.63;;;;;;;13.16;100.00;100385.38;4993778;28;20194;-68
2023/07/07 01:59:55;;;;;;;3.53;2.60;;;;;;;13.11;100.00;100386.56;4993607;28;20187;-68
2023/07/07 02:02:21;;;;;;;3.67;2.80;;;;;;;13.04;100.00;100388.72;4997697;28;20227;-68
2023/07/07 02:04:47;;;;;;;5.40;2.50;;;;;;;12.99;100.00;100386.38;4992872;28;20316;-68
2023/07/07 02:07:12;;;;;;;4.57;2.43;;;;;;;12.98;100.00;100389.88;4993246;28;20266;-69
2023/07/07 02:09:38;;;;;;;4.40;2.67;;;;;;;13.00;100.00;100385.47;4992084;28;20219;-68
2023/07/07 02:12:04;;;;;;;3.77;2.57;;;;;;;12.99;100.00;100383.00;4998582;28;20224;-68
2023/07/07 02:14:29;;;;;;;2.77;2.47;;;;;;;12.91;100.00;100388.59;4993129;28;20175;-68
2023/07/07 02:16:55;;;;;;;3.60;2.60;;;;;;;12.88;100.00;100388.78;4993352;28;20176;-68
2023/07/07 02:19:20;;;;;;;3.67;2.67;;;;;;;12.84;100.00;100388.13;4993204;28;20187;-68
2023/07/07 02:21:45;;;;;;;2.93;2.37;;;;;;;12.79;100.00;100389.31;4985007;28;20692;-67
2023/07/07 02:24:11;;;;;;;3.63;2.50;;;;;;;12.74;100.00;100398.19;4994680;28;20193;-68
2023/07/07 02:26:36;;;;;;;6.97;2.63;;;;;;;12.66;100.00;100392.63;4994202;28;20175;-68
2023/07/07 02:29:01;;;;;;;3.63;2.13;;;;;;;12.68;100.00;100397.72;5012414;28;20199;-68
2023/07/07 02:31:27;;;;;;;3.77;2.47;;;;;;;12.64;100.00;100402.22;5012408;28;20692;-68
2023/07/07 02:33:53;;;;;;;3.27;2.50;;;;;;;12.68;100.00;100408.03;5016615;28;20265;-68
2023/07/07 02:36:18;;;;;;;3.57;2.57;;;;;;;12.68;100.00;100401.13;5010884;28;20216;-68
2023/07/07 02:38:45;;;;;;;3.30;2.80;;;;;;;12.64;100.00;100402.22;5003318;28;20275;-68
2023/07/07 02:41:10;;;;;;;3.10;2.40;;;;;;;12.63;100.00;100407.47;5002674;28;20236;-69
2023/07/07 02:43:35;;;;;;;3.03;2.40;;;;;;;12.50;100.00;100405.63;5017958;28;20182;-68
2023/07/07 02:46:00;;;;;;;4.83;2.30;;;;;;;12.51;100.00;100403.84;5009814;28;20248;-68
2023/07/07 02:48:26;;;;;;;3.83;2.83;;;;;;;12.47;100.00;100404.97;5011029;28;20209;-68
2023/07/07 02:50:59;;;;;;;2.73;2.30;;;;;;;12.37;100.00;100404.66;5006819;28;20752;-67
2023/07/07 02:53:27;;;;;;;3.43;2.67;;;;;;;12.38;100.00;100404.56;5019678;28;20189;-68
2023/07/07 02:55:53;;;;;;;3.77;2.43;;;;;;;12.35;100.00;100404.72;5009876;28;20191;-68
2023/07/07 02:58:18;;;;;;;5.37;2.10;;;;;;;12.30;100.00;100403.34;5010094;28;20750;-67
2023/07/07 03:00:44;;;;;;;2.83;2.57;;;;;;;12.23;100.00;100408.00;4996019;28;20557;-68
2023/07/07 03:03:09;;;;;;;3.70;2.13;;;;;;;12.26;100.00;100407.84;5021567;28;20179;-68
2023/07/07 03:05:34;;;;;;;4.07;2.20;;;;;;;12.17;100.00;100410.91;5010689;28;20191;-67
2023/07/07 03:08:00;;;;;;;2.70;2.30;;;;;;;12.16;100.00;100412.69;5011389;28;20179;-67
2023/07/07 03:10:25;;;;;;;2.63;2.40;;;;;;;12.11;100.00;100418.09;5003333;28;20245;-67
2023/07/07 03:12:50;;;;;;;4.23;2.47;;;;;;;12.10;100.00;100421.56;5023094;28;20266;-69
2023/07/07 03:15:20;;;;;;;4.10;2.53;;;;;;;12.16;100.00;100424.75;5000352;28;20614;-68
2023/07/07 03:17:46;;;;;;;5.90;2.37;;;;;;;12.14;100.00;100424.00;4996414;28;20191;-69
2023/07/07 03:20:11;;;;;;;4.57;2.10;;;;;;;12.20;100.00;100424.47;4979219;28;20195;-68
2023/07/07 03:22:36;;;;;;;5.73;2.47;;;;;;;12.27;100.00;100424.97;5006293;28;20209;-68
2023/07/07 03:25:02;;;;;;;2.63;2.13;;;;;;;12.26;100.00;100425.88;4992537;28;20296;-68
2023/07/07 03:27:27;;;;;;;3.43;2.40;;;;;;;12.24;100.00;100425.13;5011834;28;20738;-68
2023/07/07 03:29:52;;;;;;;2.40;1.97;;;;;;;12.25;100.00;100425.06;5009869;28;20207;-69
2023/07/07 03:32:17;;;;;;;3.13;2.43;;;;;;;12.25;100.00;100419.91;4997108;28;20298;-67
2023/07/07 03:34:43;;;;;;;5.17;2.53;;;;;;;12.30;100.00;100426.56;4997705;28;20176;-68
2023/07/07 03:37:09;;;;;;;3.60;2.43;;;;;;;12.30;100.00;100423.97;5007119;28;20340;-68
2023/07/07 03:39:34;;;;;;;3.27;2.20;;;;;;;12.24;100.00;100425.97;5005011;28;20687;-68
2023/07/07 03:42:00;;;;;;;3.77;2.33;;;;;;;12.26;100.00;100424.13;4975496;28;20312;-68
2023/07/07 03:44:26;;;;;;;4.13;2.27;;;;;;;12.25;100.00;100424.22;4986910;28;20209;-69
2023/07/07 03:46:51;;;;;;;4.37;2.73;;;;;;;12.32;100.00;100430.72;4991906;28;20941;-69
2023/07/07 03:49:16;;;;;;;6.17;2.67;;;;;;;12.35;100.00;100427.94;4991546;28;20213;-69
2023/07/07 03:51:42;;;;;;;3.07;2.27;;;;;;;12.37;100.00;100428.69;4994493;28;20345;-69
2023/07/07 03:54:07;;;;;;;3.50;2.60;;;;;;;12.41;100.00;100432.75;5007653;28;20186;-68
2023/07/07 03:56:32;;;;;;;4.07;2.00;;;;;;;12.47;100.00;100431.56;5010472;28;20566;-68
2023/07/07 03:58:58;;;;;;;2.90;2.30;;;;;;;12.51;100.00;100433.06;5009797;28;20175;-68
2023/07/07 04:01:23;;;;;;;4.00;2.20;;;;;;;12.57;100.00;100437.03;5010898;28;20314;-68
2023/07/07 04:03:48;;;;;;;3.47;2.37;;;;;;;12.69;100.00;100440.66;5015112;28;20179;-68
2023/07/07 04:06:15;;;;;;;3.10;2.47;;;;;;;12.75;100.00;100450.63;5010750;28;20625;-67
2023/07/07 04:08:41;;;;;;;4.53;2.80;;;;;;;12.84;100.00;100446.69;5010262;28;20210;-68
2023/07/07 04:11:10;;;;;;;4.97;2.53;;;;;;;12.86;100.00;100439.69;5009296;28;20232;-68
2023/07/07 04:13:37;;;;;;;5.30;2.50;;;;;;;12.91;100.00;100445.41;5016933;28;20542;-68
2023/07/07 04:16:15;;;;;;;4.77;2.90;;;;;;;12.97;100.00;100449.38;5002247;28;20196;-68
2023/07/07 04:18:42;;;;;;;4.87;2.73;;;;;;;13.14;100.00;100441.44;4991910;28;20568;-69
2023/07/07 04:21:10;;;;;;;4.13;2.50;;;;;;;13.20;100.00;100441.09;4987835;28;20642;-68
2023/07/07 04:23:38;;;;;;;3.07;2.43;;;;;;;13.29;100.00;100436.31;5002867;28;20183;-68
2023/07/07 04:26:04;;;;;;;5.27;2.07;;;;;;;13.36;100.00;100435.00;5000051;28;20248;-69
2023/07/07 04:28:30;;;;;;;4.00;2.73;;;;;;;13.35;100.00;100439.31;5007772;28;20238;-68
2023/07/07 04:30:58;;;;;;;4.90;2.60;;;;;;;13.42;100.00;100442.41;4991936;28;20710;-69
2023/07/07 04:33:24;;;;;;;5.30;2.50;;;;;;;13.55;100.00;100437.31;4993856;28;20380;-68
2023/07/07 04:35:56;;;;;;;4.20;2.50;;;;;;;13.61;100.00;100449.03;4993384;28;20214;-69
2023/07/07 04:38:30;;;;;;;2.73;2.00;;;;;;;13.67;100.00;100440.91;4985472;28;20176;-68
2023/07/07 04:41:04;;;;;;;2.77;1.90;;;;;;;13.68;100.00;100440.81;4991720;28;20241;-69
2023/07/07 04:43:29;;;;;;;5.40;2.47;;;;;;;13.82;100.00;100445.09;5009549;28;20593;-69
2023/07/07 04:45:55;;;;;;;2.20;2.00;;;;;;;13.67;100.00;100443.50;5000502;28;20179;-68
2023/07/07 04:48:20;;;;;;;6.57;2.63;;;;;;;13.71;100.00;100450.94;4994834;28;20231;-67
2023/07/07 04:50:45;;;;;;;3.57;2.33;;;;;;;13.92;100.00;100450.53;4990076;28;20234;-68
2023/07/07 04:53:10;;;;;;;4.20;2.20;;;;;;;14.07;100.00;100453.09;5004409;28;20175;-68
2023/07/07 04:55:42;;;;;;;4.40;2.70;;;;;;;14.13;100.00;100447.53;4994029;28;20188;-69
2023/07/07 04:58:07;;;;;;;3.77;2.47;;;;;;;14.24;100.00;100452.84;4995390;28;20190;-69
2023/07/07 05:00:32;;;;;;;6.17;3.13;;;;;;;14.40;100.00;100459.59;4988251;28;20230;-69
2023/07/07 05:02:59;;;;;;;4.83;2.60;;;;;;;14.56;100.00;100462.00;5005819;28;20179;-68
2023/07/07 05:05:24;;;;;;;8.53;2.97;;;;;;;14.66;100.00;100466.53;4994125;28;20531;-69
2023/07/07 05:07:49;;;;;;;6.13;2.60;;;;;;;14.87;100.00;100466.00;4994637;28;20183;-68
2023/07/07 05:10:14;;;;;;;5.10;2.53;;;;;;;15.01;100.00;100460.75;4989079;28;20186;-68
2023/07/07 05:12:40;;;;;;;13.57;2.53;;;;;;;14.85;100.00;100462.72;5012397;28;20179;-67
2023/07/07 05:15:06;;;;;;;7.10;3.20;;;;;;;15.05;100.00;100466.56;4996681;28;20215;-69
2023/07/07 05:17:31;;;;;;;8.67;2.60;;;;;;;15.15;100.00;100467.56;4999427;28;20179;-69
2023/07/07 05:19:56;;;;;;;6.03;2.57;;;;;;;15.33;100.00;100480.22;5002283;28;20179;-69
2023/07/07 05:22:22;;;;;;;3.93;2.33;;;;;;;15.54;100.00;100475.34;4993799;28;20254;-69
2023/07/07 05:24:47;;;;;;;6.87;2.67;;;;;;;15.75;100.00;100477.34;4985505;28;20549;-69
2023/07/07 05:27:13;;;;;;;6.80;2.17;;;;;;;15.90;100.00;100476.31;4999163;28;20296;-68
2023/07/07 05:29:39;;;;;;;6.20;2.80;;;;;;;16.14;100.00;100478.09;5012119;28;20211;-68
2023/07/07 05:32:04;;;;;;;8.93;2.33;;;;;;;16.18;100.00;100481.28;4998834;28;20229;-68
2023/07/07 05:34:30;;;;;;;13.30;2.53;;;;;;;16.39;100.00;100481.50;4993417;28;20258;-67
2023/07/07 05:36:55;;;;;;;9.27;2.57;;;;;;;16.64;100.00;100487.47;4996842;28;20564;-68
2023/07/07 05:39:20;;;;;;;7.27;2.50;;;;;;;16.90;100.00;100490.72;5006207;28;20191;-69
2023/07/07 05:41:45;;;;;;;10.40;2.77;;;;;;;17.16;99.29;100490.56;5015566;28;20229;-69
2023/07/07 05:44:11;;;;;;;5.33;2.40;;;;;;;17.47;98.31;100485.59;5014642;28;20261;-67
2023/07/07 05:46:36;;;;;;;5.63;2.10;;;;;;;17.70;97.83;100482.03;5012638;28;20179;-68
2023/07/07 05:49:01;;;;;;;12.10;2.37;;;;;;;17.73;97.06;100475.75;5012512;28;20268;-68
2023/07/07 05:51:26;;;;;;;5.17;2.23;;;;;;;17.91;95.94;100486.47;5012109;28;20226;-68
2023/07/07 05:53:52;;;;;;;6.07;2.67;;;;;;;18.27;94.04;100481.94;5016770;28;20190;-69
2023/07/07 05:56:20;;;;;;;6.00;2.57;;;;;;;18.24;91.21;100484.75;5010422;28;20675;-68
2023/07/07 05:58:45;;;;;;;5.57;2.53;;;;;;;18.44;90.44;100480.53;5012613;28;20274;-68
2023/07/07 06:01:13;;;;;;;10.90;2.83;;;;;;;18.92;88.33;100479.25;5010966;28;20356;-68
2023/07/07 06:03:39;;;;;;;3.87;2.23;;;;;;;19.38;83.50;100478.91;5018807;28;20348;-68
2023/07/07 06:06:05;;;;;;;6.60;2.60;;;;;;;19.68;79.39;100478.88;5011133;28;20273;-68
2023/07/07 06:08:31;;;;;;;5.40;2.30;;;;;;;19.91;76.97;100473.44;5012182;28;20239;-68
2023/07/07 06:10:56;;;;;;;6.00;2.10;;;;;;;20.44;72.92;100479.22;5008819;28;20280;-60
2023/07/07 06:13:24;;;;;;;7.97;2.50;;;;;;;20.56;68.63;100478.09;5006336;28;20192;-60
2023/07/07 06:15:51;;;;;;;2.80;2.47;;;;;;;20.85;67.66;100474.66;5006577;28;20191;-60
2023/07/07 06:18:16;;;;;;;6.13;2.40;;;;;;;21.70;60.09;100471.16;5001702;28;20180;-61
2023/07/07 06:20:46;;;;;;;5.50;2.27;;;;;;;22.46;54.75;100474.31;5001382;28;20318;-61
2023/07/07 06:23:11;;;;;;;8.77;2.30;;;;;;;23.22;49.73;100470.22;5004158;28;20222;-61
2023/07/07 06:25:36;;;;;;;5.67;2.50;;;;;;;23.71;47.33;100469.56;5006184;28;20191;-59
2023/07/07 06:28:01;;;;;;;14.50;2.73;;;;;;;23.81;46.82;100475.47;5006033;28;21024;-59
2023/07/07 06:30:27;;;;;;;7.33;2.13;;;;;;;23.55;47.84;100474.75;4998987;28;20241;-60
2023/07/07 06:32:52;;;;;;;3.80;1.83;;;;;;;24.94;44.39;100478.44;5013176;28;20575;-60
2023/07/07 06:35:17;;;;;;;8.07;2.53;;;;;;;25.71;41.10;100477.84;5004794;28;20259;-60
2023/07/07 06:37:43;;;;;;;4.90;2.10;;;;;;;26.44;38.35;100477.47;4997863;28;20191;-60
2023/07/07 06:40:09;;;;;;;5.75;2.15;;;;;;;26.45;37.00;100481.75;4992514;28;20226;-60
2023/07/07 06:42:34;;;;;;;5.68;2.22;;;;;;;25.53;40.10;100480.72;4999167;28;20187;-61
2023/07/07 06:45:00;;;;;;;5.35;2.13;;;;;;;25.69;38.85;100479.81;5003254;28;20175;-60
2023/07/07 06:47:26;;;;;;;6.30;1.95;;;;;;;25.61;38.38;100480.69;5002420;28;20207;-60
2023/07/07 06:49:51;;;;;;;4.18;1.80;;;;;;;25.50;38.35;100488.94;5002982;28;20270;-61
2023/07/07 06:52:16;;;;;;;3.42;1.63;;;;;;;25.84;37.76;100489.59;5015539;28;20267;-61
2023/07/07 06:54:41;;;;;;;6.20;1.88;;;;;;;26.30;36.17;100491.44;5004876;28;20187;-65
2023/07/07 06:57:09;;;;;;;3.22;2.08;;;;;;;26.45;35.52;100486.22;4992840;28;20191;-65
2023/07/07 06:59:35;;;;;;;2.22;1.70;;;;;;;26.70;34.82;100490.22;4991747;28;20187;-64
2023/07/07 07:02:00;;;;;;;6.55;1.63;;;;;;;27.01;33.83;100484.00;4969914;28;20227;-65
2023/07/07 07:04:25;;;;;;;3.88;2.13;;;;;;;28.40;31.99;100487.53;4988306;28;20179;-65
2023/07/07 07:06:51;;;;;;;3.30;2.03;;;;;;;28.97;30.82;100490.97;4990810;28;20190;-65
2023/07/07 07:09:16;;;;;;;2.65;1.80;;;;;;;29.11;30.88;100491.06;4991710;28;20206;-65
2023/07/07 07:11:41;;;;;;;5.50;1.65;;;;;;;29.65;29.84;100480.69;4994849;28;20230;-65
2023/07/07 07:14:07;;;;;;;500.63;149.90;;;;;;;30.93;28.46;100484.97;4993969;28;20194;-65
2023/07/07 07:16:32;;;;;;;33.28;3.85;;;;;;;30.05;29.25;100489.53;4993968;28;20658;-65
2023/07/07 07:18:57;;;;;;;3.95;1.90;;;;;;;28.26;31.06;100488.47;4996353;28;20241;-65
2023/07/07 07:21:23;;;;;;;2.25;1.80;;;;;;;28.77;30.21;100490.88;4992238;28;20226;-64
2023/07/07 07:23:50;;;;;;;2.85;1.88;;;;;;;30.19;29.10;100492.19;4996556;28;20659;-64
2023/07/07 07:26:16;;;;;;;31.60;3.00;;;;;;;31.36;26.94;100503.00;4991496;28;20529;-64
2023/07/07 07:28:41;;;;;;;2.90;1.40;;;;;;;30.85;27.61;100496.63;5005059;28;20223;-64
2023/07/07 07:31:06;;;;;;;3.90;2.10;;;;;;;30.16;27.88;100506.69;4970408;28;20234;-64
2023/07/07 07:33:31;;;;;;;4.40;1.65;;;;;;;30.85;28.21;100496.63;5004191;28;20186;-65
2023/07/07 07:35:58;;;;;;;3.17;2.33;;;;;;;30.11;28.30;100501.97;5010711;28;20223;-65
2023/07/07 07:38:23;;;;;;;2.10;1.60;;;;;;;30.72;28.46;100489.50;5001635;28;20232;-64
2023/07/07 07:40:53;;;;;;;5.68;1.98;;;;;;;30.05;28.33;100500.13;5007362;28;20233;-65
2023/07/07 07:43:21;;;;;;;6.18;1.65;;;;;;;29.09;29.79;100501.03;5004001;28;20187;-65
2023/07/07 07:45:47;;;;;;;4.80;2.50;;;;;;;30.02;29.48;100503.22;4990435;28;20183;-65
2023/07/07 07:48:12;;;;;;;4.88;2.05;;;;;;;31.32;27.35;100501.81;4991722;28;20213;-65
2023/07/07 07:50:38;;;;;;;5.95;1.98;;;;;;;29.71;28.35;100507.19;4986298;28;20292;-65
2023/07/07 07:53:03;;;;;;;4.78;1.95;;;;;;;28.48;31.20;100505.09;5002327;28;20179;-65
2023/07/07 07:55:28;;;;;;;4.68;1.70;;;;;;;30.50;28.18;100496.09;4991904;28;20199;-65
2023/07/07 07:57:53;;;;;;;5.10;2.28;;;;;;;31.68;26.62;100496.94;4991756;28;20176;-66
2023/07/07 08:00:19;;;;;;;2.17;1.60;;;;;;;32.46;25.42;100505.59;4986185;28;20188;-66
2023/07/07 08:02:45;;;;;;;3.78;2.20;;;;;;;30.44;28.19;100497.72;5008670;28;20184;-64
2023/07/07 08:05:11;;;;;;;6.00;1.98;;;;;;;30.41;28.32;100506.88;4995052;28;20191;-65
2023/07/07 08:07:37;;;;;;;5.55;1.80;;;;;;;30.34;28.33;100499.94;4996176;28;20183;-65
2023/07/07 08:10:03;;;;;;;3.53;2.30;;;;;;;30.53;27.75;100499.16;4991891;28;20658;-65
2023/07/07 08:12:30;;;;;;;5.70;2.38;;;;;;;31.97;26.54;100502.69;5009475;28;20538;-65
2023/07/07 08:14:55;;;;;;;6.38;2.17;;;;;;;32.74;25.77;100501.63;4995122;28;20231;-65
2023/07/07 08:17:20;;;;;;;6.43;1.92;;;;;;;32.39;25.75;100508.31;4995302;28;20244;-65
2023/07/07 08:19:48;;;;;;;5.78;2.22;;;;;;;31.89;25.70;100509.06;4995354;28;20195;-65
2023/07/07 08:22:17;;;;;;;5.03;1.98;;;;;;;32.78;24.88;100503.66;4986559;28;20298;-65
2023/07/07 08:24:50;;;;;;;5.72;2.10;;;;;;;33.31;23.92;100504.91;4995977;28;20187;-66
2023/07/07 08:27:17;;;;;;;4.82;2.20;;;;;;;33.50;24.35;100506.72;4991258;28;20227;-66
2023/07/07 08:29:42;;;;;;;3.08;1.98;;;;;;;32.10;26.01;100501.78;5000016;28;20243;-64
2023/07/07 08:32:11;;;;;;;6.30;1.95;;;;;;;31.68;25.76;100500.44;5000517;28;20260;-64
2023/07/07 08:34:37;;;;;;;5.88;1.95;;;;;;;31.20;26.81;100495.53;4993353;28;20183;-65
2023/07/07 08:37:03;;;;;;;4.93;2.13;;;;;;;32.32;25.72;100503.03;4995143;28;20204;-66
2023/07/07 08:39:29;;;;;;;7.78;2.25;;;;;;;33.55;24.17;100506.84;4994699;28;20195;-65
2023/07/07 08:42:05;;;;;;;3.72;2.05;;;;;;;33.93;24.28;100505.72;4999450;28;20222;-66
2023/07/07 08:44:34;;;;;;;7.07;2.92;;;;;;;32.25;25.43;100498.81;4994345;28;20251;-66
2023/07/07 08:47:04;;;;;;;4.68;2.38;;;;;;;33.84;25.19;100504.41;4995135;28;20293;-65
2023/07/07 08:49:55;;;;;;;7.47;2.30;;;;;;;35.15;23.02;100506.00;4994179;28;20301;-65
2023/07/07 08:52:36;;;;;;;4.13;1.90;;;;;;;33.18;23.93;100504.22;4984195;28;20268;-66
2023/07/07 08:55:31;;;;;;;5.25;1.70;;;;;;;32.98;24.67;100500.78;4983190;28;20202;-66
2023/07/07 08:58:07;;;;;;;3.10;1.83;;;;;;;33.75;24.16;100498.56;4994747;28;20171;-65
2023/07/07 09:01:01;;;;;;;8.32;2.63;;;;;;;32.25;24.96;100485.50;4988310;28;20264;-67
2023/07/07 09:03:35;;;;;;;3.80;2.53;;;;;;;34.56;23.54;100482.09;5002506;28;20171;-66
2023/07/07 09:06:21;;;;;;;4.47;1.98;;;;;;;35.99;21.89;100491.22;4993760;28;20278;-66
2023/07/07 09:08:55;;;;;;;6.20;2.50;;;;;;;35.93;22.66;100494.88;4995249;28;20260;-65
2023/07/07 09:11:27;;;;;;;5.95;2.25;;;;;;;35.33;21.86;100491.66;4993470;28;20234;-65
2023/07/07 09:13:56;;;;;;;5.93;2.45;;;;;;;35.30;22.08;100485.97;4998254;28;20172;-64
2023/07/07 09:16:26;;;;;;;3.42;2.10;;;;;;;35.02;21.76;100488.41;4993668;28;20188;-65
2023/07/07 09:19:07;;;;;;;3.45;1.80;;;;;;;35.83;21.62;100489.31;4994199;28;20190;-65
2023/07/07 09:21:42;;;;;;;3.67;1.90;;;;;;;37.63;20.10;100488.16;4995803;28;20706;-66
2023/07/07 09:24:29;;;;;;;5.80;2.85;;;;;;;36.54;20.77;100486.13;4996275;28;20199;-66
2023/07/07 09:26:59;;;;;;;8.27;2.25;;;;;;;36.86;20.51;100485.47;4998689;28;20210;-66
2023/07/07 09:29:27;;;;;;;8.05;2.70;;;;;;;36.13;20.98;100482.84;5001428;28;20222;-66
2023/07/07 09:31:54;;;;;;;3.17;2.00;;;;;;;34.72;21.38;100488.53;4997698;28;20710;-66
2023/07/07 09:34:21;;;;;;;3.30;2.70;;;;;;;35.49;21.39;100484.75;4994335;28;20302;-65
2023/07/07 09:37:07;;;;;;;5.80;2.92;;;;;;;35.67;20.87;100483.72;4992086;28;20213;-66
2023/07/07 09:40:04;;;;;;;6.97;2.50;;;;;;;35.95;20.72;100487.41;4994075;28;20238;-66
2023/07/07 09:42:32;;;;;;;6.85;2.28;;;;;;;34.74;22.17;100478.44;4950917;28;20710;-65
2023/07/07 09:45:15;;;;;;;5.80;2.30;;;;;;;34.35;22.27;100470.97;4993223;28;20233;-66
2023/07/07 09:47:51;;;;;;;2.78;2.28;;;;;;;35.01;21.05;100472.59;4994048;28;20211;-66
2023/07/07 09:50:37;;;;;;;6.45;2.30;;;;;;;34.82;22.02;100477.25;4985236;28;20555;-67
2023/07/07 09:53:13;;;;;;;4.07;2.35;;;;;;;33.96;21.83;100483.91;4997535;28;20559;-66
2023/07/07 09:55:39;;;;;;;7.28;2.60;;;;;;;34.20;22.25;100478.56;4992962;28;20730;-66
2023/07/07 09:58:23;;;;;;;3.50;2.20;;;;;;;33.98;20.99;100467.69;4993436;28;20255;-66
2023/07/07 10:00:54;;;;;;;6.90;2.63;;;;;;;35.36;21.03;100463.63;4988119;28;20305;-66
2023/07/07 10:03:35;;;;;;;2.92;1.92;;;;;;;34.72;21.43;100472.50;5002010;28;20194;-67
2023/07/07 10:06:04;;;;;;;2.28;2.08;;;;;;;34.65;21.24;100458.50;4982308;28;20886;-66
2023/07/07 10:08:30;;;;;;;3.97;2.78;;;;;;;35.69;20.36;100456.72;4994275;28;20210;-66
2023/07/07 10:11:12;;;;;;;4.18;2.00;;;;;;;35.03;21.04;100465.16;4991197;28;20630;-66
2023/07/07 10:13:37;;;;;;;2.45;2.10;;;;;;;34.75;22.27;100462.19;4991933;28;20186;-67
2023/07/07 10:16:22;;;;;;;5.25;2.35;;;;;;;33.24;22.07;100461.50;4992770;28;20187;-66
2023/07/07 10:18:49;;;;;;;2.90;2.15;;;;;;;33.95;21.20;100456.41;4993348;28;20183;-66
2023/07/07 10:21:15;;;;;;;2.88;2.53;;;;;;;34.92;20.59;100458.81;4992587;28;20250;-65
2023/07/07 10:23:40;;;;;;;2.60;2.33;;;;;;;34.39;21.57;100455.28;4999425;28;20179;-64
2023/07/07 10:26:06;;;;;;;4.22;2.67;;;;;;;34.06;21.70;100453.97;4992919;28;20658;-67
2023/07/07 10:28:32;;;;;;;4.72;3.10;;;;;;;35.29;21.60;100445.06;5008080;28;20676;-66
2023/07/07 10:30:57;;;;;;;5.65;2.65;;;;;;;35.86;20.73;100452.19;5004090;28;20225;-60
2023/07/07 10:33:22;;;;;;;3.20;2.90;;;;;;;34.01;21.71;100445.84;5020434;28;20193;-63
2023/07/07 10:35:49;;;;;;;4.55;2.88;;;;;;;36.22;20.40;100445.75;5011610;28;20210;-63
2023/07/07 10:38:14;;;;;;;8.00;2.70;;;;;;;36.49;20.05;100444.03;5002316;28;20225;-64
2023/07/07 10:40:42;;;;;;;5.30;2.83;;;;;;;38.13;18.98;100450.44;5006880;28;20225;-68
2023/07/07 10:43:15;;;;;;;4.32;2.63;;;;;;;38.37;18.97;100448.19;5006160;28;20175;-62
2023/07/07 10:45:45;;;;;;;2.95;2.58;;;;;;;39.27;17.74;100441.75;4992902;28;20783;-63
2023/07/07 10:48:12;;;;;;;5.15;2.83;;;;;;;35.43;21.02;100434.06;4991777;28;20176;-62
2023/07/07 10:50:52;;;;;;;4.88;3.25;;;;;;;33.14;23.27;100435.41;4985013;28;20298;-62
2023/07/07 10:53:58;;;;;;;3.78;2.58;;;;;;;31.44;24.74;100421.41;4979771;28;21046;-61
2023/07/07 10:56:29;;;;;;;4.75;3.13;;;;;;;31.71;25.32;100419.41;4991893;28;20655;-72
2023/07/07 10:59:26;;;;;;;5.30;3.35;;;;;;;31.16;26.37;100419.91;4992414;28;20270;-69
2023/07/07 11:02:15;;;;;;;4.65;3.38;;;;;;;30.77;26.00;100417.19;4975058;28;20226;-63
2023/07/07 11:04:59;;;;;;;5.43;3.00;;;;;;;30.59;27.41;100413.38;4996464;28;20262;-61
2023/07/07 11:07:46;;;;;;;3.75;3.20;;;;;;;30.13;27.35;100406.31;4992090;28;20179;-54
2023/07/07 11:10:14;;;;;;;4.30;3.22;;;;;;;30.06;27.36;100400.19;4994908;28;20305;-54
2023/07/07 11:12:49;;;;;;;6.60;3.65;;;;;;;29.52;28.00;100404.59;5005832;28;20222;-55
2023/07/07 11:15:27;;;;;;;6.72;3.10;;;;;;;29.05;28.06;100401.81;4984327;28;20602;-57
2023/07/07 11:17:52;;;;;;;5.22;3.08;;;;;;;29.03;28.01;100395.91;5005270;28;20186;-55
2023/07/07 11:20:23;;;;;;;3.78;3.20;;;;;;;28.66;28.41;100394.28;4986152;28;20635;-56
2023/07/07 11:23:05;;;;;;;3.70;2.65;;;;;;;28.43;28.76;100393.75;5004657;28;20274;-55
2023/07/07 11:25:47;;;;;;;6.40;3.47;;;;;;;28.54;28.90;100393.19;4991486;28;20195;-56
2023/07/07 11:28:44;;;;;;;4.07;3.25;;;;;;;28.79;29.64;100395.38;4991452;28;20227;-56
2023/07/07 11:31:18;;;;;;;4.63;3.70;;;;;;;29.05;28.02;100383.25;4961599;28;20717;-55